Time;durP1;ratioP1;P1;durP2;ratioP2;P2;SDS_P1;SDS_P2;PMS_P1;PMS_P2;Temp;Humidity;BMP_temperature;BMP_pressure;BME280_temperature;BME280_humidity;BME280_pressure;Samples;Min_cycle;Max_cycle;Signal;HPM_P1;HPM_P2
2021/04/07 00:01:01;;;;;;;3.10;2.70;;;0.50;99.90;;;;;;5098298;28;20923;-76
2021/04/07 00:03:28;;;;;;;4.03;3.20;;;0.50;99.90;;;;;;5078177;28;20473;-73
2021/04/07 00:05:57;;;;;;;4.50;2.27;;;0.50;99.90;;;;;;5076827;28;20467;-74
2021/04/07 00:08:26;;;;;;;3.03;1.80;;;0.50;99.90;;;;;;5076832;28;20500;-76
2021/04/07 00:10:54;;;;;;;2.50;1.70;;;0.50;99.90;;;;;;5079895;28;20428;-74
2021/04/07 00:13:23;;;;;;;2.20;2.00;;;0.50;99.90;;;;;;5081705;28;20422;-76
2021/04/07 00:15:51;;;;;;;2.13;1.93;;;0.50;99.90;;;;;;5080711;28;20477;-77
2021/04/07 00:18:20;;;;;;;1.73;1.63;;;0.40;99.90;;;;;;5098143;28;20807;-74
2021/04/07 00:20:48;;;;;;;2.00;1.67;;;0.40;99.90;;;;;;5077038;28;20479;-74
2021/04/07 00:23:15;;;;;;;5.00;1.90;;;0.40;99.90;;;;;;5077844;28;20433;-75
2021/04/07 00:25:43;;;;;;;2.30;1.90;;;0.30;99.90;;;;;;5078320;28;20437;-74
2021/04/07 00:28:12;;;;;;;6.60;3.03;;;0.30;99.90;;;;;;5079710;28;20952;-74
2021/04/07 00:30:40;;;;;;;3.10;2.23;;;0.30;99.90;;;;;;5076811;28;20476;-77
2021/04/07 00:33:07;;;;;;;1.87;1.77;;;0.30;99.90;;;;;;5078320;28;20430;-74
2021/04/07 00:35:36;;;;;;;2.37;2.07;;;0.20;99.90;;;;;;5077690;28;20436;-75
2021/04/07 00:38:03;;;;;;;3.30;1.73;;;0.20;99.90;;;;;;5078535;28;20463;-75
2021/04/07 00:40:31;;;;;;;4.07;2.40;;;0.20;99.90;;;;;;5078108;28;20477;-75
2021/04/07 00:43:01;;;;;;;3.80;2.50;;;0.20;99.90;;;;;;5079057;28;20425;-73
2021/04/07 00:45:29;;;;;;;3.57;2.43;;;0.30;99.90;;;;;;5077723;28;20814;-73
2021/04/07 00:47:57;;;;;;;3.30;2.43;;;0.20;99.90;;;;;;5078675;28;20457;-74
2021/04/07 00:50:26;;;;;;;5.07;2.60;;;0.20;99.90;;;;;;5060105;28;20440;-74
2021/04/07 00:52:56;;;;;;;2.53;2.33;;;0.20;99.90;;;;;;5079129;28;20421;-74
2021/04/07 00:55:29;;;;;;;4.27;2.37;;;0.20;99.90;;;;;;5078090;28;20426;-75
2021/04/07 00:57:57;;;;;;;5.10;3.43;;;0.20;99.90;;;;;;5078300;28;20465;-74
2021/04/07 01:00:26;;;;;;;4.37;3.43;;;0.20;99.90;;;;;;5076716;28;20469;-74
2021/04/07 01:02:55;;;;;;;2.70;2.50;;;0.20;99.90;;;;;;5079489;28;20425;-74
2021/04/07 01:05:25;;;;;;;5.17;3.50;;;0.20;99.90;;;;;;5099182;28;20437;-74
2021/04/07 01:07:55;;;;;;;3.10;2.73;;;0.20;99.90;;;;;;5089700;28;20439;-74
2021/04/07 01:10:23;;;;;;;4.40;3.37;;;0.20;99.90;;;;;;5080517;28;20515;-75
2021/04/07 01:12:52;;;;;;;5.97;3.27;;;0.20;99.90;;;;;;5105602;28;20431;-75
2021/04/07 01:15:20;;;;;;;4.23;3.20;;;0.20;99.90;;;;;;5084314;28;20421;-73
2021/04/07 01:17:48;;;;;;;4.17;3.30;;;0.20;99.90;;;;;;5102928;28;20550;-77
2021/04/07 01:20:17;;;;;;;3.37;3.07;;;0.20;99.90;;;;;;5084552;28;20440;-75
2021/04/07 01:22:48;;;;;;;3.60;3.30;;;0.20;99.90;;;;;;5103045;28;20435;-75
2021/04/07 01:25:17;;;;;;;5.47;4.20;;;0.30;99.90;;;;;;5103045;28;20469;-75
2021/04/07 01:27:45;;;;;;;4.43;3.43;;;0.30;99.90;;;;;;5101790;28;20428;-75
2021/04/07 01:30:16;;;;;;;4.03;3.47;;;0.30;99.90;;;;;;5102421;28;20424;-74
2021/04/07 01:32:46;;;;;;;4.77;3.43;;;0.30;99.90;;;;;;5067706;28;20452;-77
2021/04/07 01:35:18;;;;;;;5.50;3.57;;;0.30;99.90;;;;;;5084301;28;20439;-74
2021/04/07 01:38:12;;;;;;;4.80;3.37;;;0.30;99.90;;;;;;5102548;28;20456;-73
2021/04/07 01:40:42;;;;;;;4.40;4.00;;;0.30;99.90;;;;;;5101087;28;20436;-75
2021/04/07 01:43:35;;;;;;;4.80;4.10;;;0.30;99.90;;;;;;5103143;28;20474;-74
2021/04/07 01:46:03;;;;;;;5.37;4.13;;;0.30;99.90;;;;;;5102229;28;20460;-77
2021/04/07 01:48:31;;;;;;;5.97;4.43;;;0.20;99.90;;;;;;5085472;28;20450;-74
2021/04/07 01:50:59;;;;;;;7.30;4.20;;;0.20;99.90;;;;;;5085152;28;20788;-77
2021/04/07 01:53:27;;;;;;;3.83;3.23;;;0.20;99.90;;;;;;5084432;28;20489;-75
2021/04/07 01:58:57;;;;;;;5.77;3.70;;;0.20;99.90;;;;;;5084921;28;20464;-77
2021/04/07 02:01:25;;;;;;;4.30;3.63;;;0.10;99.90;;;;;;5102253;28;20491;-75
2021/04/07 02:03:52;;;;;;;5.03;3.97;;;0.10;99.90;;;;;;5097869;28;20480;-74
2021/04/07 02:06:22;;;;;;;5.50;3.40;;;0.10;99.90;;;;;;5082525;28;20778;-74
2021/04/07 02:08:53;;;;;;;4.60;3.57;;;0.10;99.90;;;;;;5083640;28;20441;-77
2021/04/07 02:11:23;;;;;;;4.30;3.60;;;0.10;99.90;;;;;;5081499;28;20465;-74
2021/04/07 02:13:52;;;;;;;6.47;4.33;;;0.10;99.90;;;;;;5082834;28;20517;-75
2021/04/07 02:16:20;;;;;;;6.57;3.77;;;0.10;99.90;;;;;;5081082;28;20494;-77
2021/04/07 02:18:47;;;;;;;4.80;3.70;;;0.10;99.90;;;;;;5080833;28;20453;-74
2021/04/07 02:21:16;;;;;;;5.97;4.00;;;0.10;99.90;;;;;;5081689;28;20445;-74
2021/04/07 02:23:44;;;;;;;6.60;3.60;;;0.10;99.90;;;;;;5079273;28;20441;-77
2021/04/07 02:26:12;;;;;;;6.97;3.90;;;0.10;99.90;;;;;;5063616;28;20453;-75
2021/04/07 02:28:41;;;;;;;5.33;4.27;;;0.20;99.90;;;;;;5080256;28;20457;-74
2021/04/07 02:31:09;;;;;;;5.43;3.43;;;0.10;99.90;;;;;;5080675;28;20469;-74
2021/04/07 02:33:36;;;;;;;6.40;4.37;;;0.10;99.90;;;;;;5079494;28;20441;-75
2021/04/07 02:36:05;;;;;;;4.50;3.83;;;0.20;99.90;;;;;;5084164;28;20917;-74
2021/04/07 02:38:33;;;;;;;4.47;3.80;;;0.10;99.90;;;;;;5082317;28;20821;-75
2021/04/07 02:41:05;;;;;;;6.87;3.50;;;0.10;99.90;;;;;;5065004;28;20425;-74
2021/04/07 02:43:33;;;;;;;6.10;4.27;;;0.10;99.90;;;;;;5082055;28;20426;-75
2021/04/07 02:46:01;;;;;;;6.50;4.80;;;0.10;99.90;;;;;;5061585;28;20857;-74
2021/04/07 02:48:29;;;;;;;6.23;4.37;;;0.00;99.90;;;;;;5079453;28;20425;-74
2021/04/07 02:50:56;;;;;;;5.17;3.70;;;0.00;99.90;;;;;;5080815;28;20988;-75
2021/04/07 02:53:24;;;;;;;6.13;3.60;;;0.00;99.90;;;;;;5082222;28;20417;-77
2021/04/07 02:58:45;;;;;;;6.27;4.57;;;-0.10;99.90;;;;;;5063352;28;20466;-77
2021/04/07 03:01:13;;;;;;;6.57;4.20;;;-0.20;99.90;;;;;;5078972;28;20488;-74
2021/04/07 03:03:41;;;;;;;5.43;4.40;;;-0.20;99.90;;;;;;5087949;28;20878;-75
2021/04/07 03:06:09;;;;;;;8.77;4.97;;;-0.20;99.90;;;;;;5083085;28;20486;-74
2021/04/07 03:08:37;;;;;;;8.80;5.60;;;-0.20;99.90;;;;;;5082029;28;20440;-74
2021/04/07 03:11:05;;;;;;;7.40;5.13;;;-0.20;99.90;;;;;;5099554;28;20429;-76
2021/04/07 03:13:32;;;;;;;8.20;4.90;;;-0.10;99.90;;;;;;5100619;28;20459;-75
2021/04/07 03:16:00;;;;;;;9.93;5.23;;;-0.10;99.90;;;;;;5065502;28;20472;-77
2021/04/07 03:18:29;;;;;;;6.50;4.53;;;0.00;99.90;;;;;;5100565;28;20529;-74
2021/04/07 03:20:56;;;;;;;6.60;3.97;;;0.00;99.90;;;;;;5083405;28;20441;-75
2021/04/07 03:23:24;;;;;;;9.90;4.80;;;0.00;99.90;;;;;;5099415;28;20924;-73
2021/04/07 03:25:52;;;;;;;9.63;5.93;;;-0.10;99.90;;;;;;5078753;28;20786;-75
2021/04/07 03:28:20;;;;;;;7.63;5.40;;;-0.10;99.90;;;;;;5096161;28;20449;-74
2021/04/07 03:30:50;;;;;;;6.50;5.13;;;-0.10;99.90;;;;;;5094373;28;20460;-75
2021/04/07 03:33:20;;;;;;;12.37;4.77;;;-0.20;99.90;;;;;;5078502;28;20840;-74
2021/04/07 03:35:50;;;;;;;5.60;4.60;;;-0.20;99.90;;;;;;5077865;28;20804;-75
2021/04/07 03:38:18;;;;;;;7.17;4.50;;;-0.20;99.90;;;;;;5097091;28;20460;-75
2021/04/07 03:40:46;;;;;;;6.17;4.07;;;-0.20;99.90;;;;;;5078159;28;20857;-75
2021/04/07 03:43:16;;;;;;;9.17;4.67;;;-0.20;99.90;;;;;;5063015;28;20465;-75
2021/04/07 03:45:49;;;;;;;6.53;5.40;;;-0.20;99.90;;;;;;5078440;28;20504;-75
2021/04/07 03:48:19;;;;;;;6.93;3.57;;;-0.20;99.90;;;;;;5063367;28;20455;-75
2021/04/07 03:50:48;;;;;;;6.37;4.50;;;-0.20;99.90;;;;;;5100801;28;20433;-75
2021/04/07 03:53:17;;;;;;;8.00;5.33;;;-0.10;99.90;;;;;;5089863;28;20446;-76
2021/04/07 03:55:46;;;;;;;7.27;4.70;;;-0.10;99.90;;;;;;5109698;28;20457;-74
2021/04/07 04:01:07;;;;;;;9.33;4.90;;;-0.20;99.90;;;;;;5095781;28;20485;-77
2021/04/07 04:03:35;;;;;;;8.00;5.00;;;-0.20;99.90;;;;;;5080827;28;20488;-74
2021/04/07 04:06:03;;;;;;;8.40;4.97;;;-0.20;99.90;;;;;;5096134;28;20496;-74
2021/04/07 04:08:32;;;;;;;5.63;4.40;;;-0.20;99.90;;;;;;5115022;28;20447;-74
2021/04/07 04:11:00;;;;;;;6.80;4.70;;;-0.20;99.90;;;;;;5086716;28;20492;-74
2021/04/07 04:13:27;;;;;;;5.43;4.23;;;-0.30;99.90;;;;;;5097572;28;20433;-77
2021/04/07 04:15:55;;;;;;;6.53;4.30;;;-0.30;99.90;;;;;;5084736;28;20526;-74
2021/04/07 04:18:23;;;;;;;10.47;4.70;;;-0.40;99.90;;;;;;5065796;28;20495;-75
2021/04/07 04:20:51;;;;;;;11.30;5.77;;;-0.50;99.90;;;;;;5079581;28;20491;-74
2021/04/07 04:23:21;;;;;;;7.20;4.37;;;-0.60;99.90;;;;;;5098374;28;20433;-74
2021/04/07 04:25:49;;;;;;;8.13;4.00;;;-0.60;99.90;;;;;;5099392;28;20432;-74
2021/04/07 04:28:18;;;;;;;5.10;4.33;;;-0.60;99.90;;;;;;5100502;28;20509;-74
2021/04/07 04:30:46;;;;;;;6.73;4.20;;;-0.60;99.90;;;;;;5081216;28;20509;-74
2021/04/07 04:33:13;;;;;;;6.27;4.80;;;-0.60;99.90;;;;;;5064643;28;20425;-73
2021/04/07 04:35:41;;;;;;;7.80;5.23;;;-0.60;99.90;;;;;;5081752;28;20440;-75
2021/04/07 04:38:08;;;;;;;9.13;4.13;;;-0.50;99.90;;;;;;5081114;28;20452;-73
2021/04/07 04:40:37;;;;;;;8.53;5.60;;;-0.50;99.90;;;;;;5098761;28;20428;-73
2021/04/07 04:43:05;;;;;;;7.53;4.83;;;-0.60;99.90;;;;;;5099416;28;20431;-77
2021/04/07 04:45:35;;;;;;;8.10;5.07;;;-0.60;99.90;;;;;;5077783;28;20442;-74
2021/04/07 04:48:04;;;;;;;7.57;4.53;;;-0.60;99.90;;;;;;5080437;28;20479;-73
2021/04/07 04:50:32;;;;;;;7.23;4.50;;;-0.60;99.90;;;;;;5079110;28;20452;-74
2021/04/07 04:52:59;;;;;;;9.53;4.93;;;-0.60;99.90;;;;;;5061717;28;20532;-74
2021/04/07 04:55:27;;;;;;;5.83;4.47;;;-0.60;99.90;;;;;;5081343;28;20444;-74
2021/04/07 04:57:56;;;;;;;10.53;5.00;;;-0.60;99.90;;;;;;5073776;28;20468;-73
2021/04/07 05:00:25;;;;;;;7.70;5.33;;;-0.50;99.90;;;;;;5074930;28;20433;-76
2021/04/07 05:02:53;;;;;;;8.80;5.80;;;-0.50;99.90;;;;;;5075021;28;20626;-77
2021/04/07 05:05:20;;;;;;;8.93;5.80;;;-0.50;99.90;;;;;;5088955;28;20475;-76
2021/04/07 05:07:52;;;;;;;7.87;5.47;;;-0.50;99.90;;;;;;5098728;28;20447;-75
2021/04/07 05:10:28;;;;;;;7.40;5.13;;;-0.60;99.90;;;;;;5083587;28;20770;-75
2021/04/07 05:12:57;;;;;;;5.83;4.57;;;-0.60;99.90;;;;;;5099981;28;20427;-75
2021/04/07 05:15:25;;;;;;;7.00;5.40;;;-0.60;99.90;;;;;;5079313;28;20432;-77
2021/04/07 05:17:53;;;;;;;8.73;4.77;;;-0.60;99.90;;;;;;5064468;28;20447;-75
2021/04/07 05:20:21;;;;;;;6.40;5.27;;;-0.50;99.90;;;;;;5099359;28;20438;-78
2021/04/07 05:22:49;;;;;;;7.17;5.37;;;-0.50;99.90;;;;;;5087090;28;20500;-75
2021/04/07 05:25:17;;;;;;;6.60;5.17;;;-0.40;99.90;;;;;;5098807;28;20436;-78
2021/04/07 05:27:45;;;;;;;7.50;4.60;;;-0.30;99.90;;;;;;5100214;28;20820;-76
2021/04/07 05:30:14;;;;;;;8.23;4.27;;;-0.30;99.90;;;;;;5081602;28;20428;-75
2021/04/07 05:32:42;;;;;;;6.97;4.73;;;-0.20;99.90;;;;;;5064556;28;21052;-75
2021/04/07 05:35:11;;;;;;;7.15;5.20;;;-0.10;99.90;;;;;;5080901;28;20438;-75
2021/04/07 05:37:38;;;;;;;9.33;5.73;;;0.00;99.90;;;;;;5081043;28;20205;-75
2021/04/07 05:40:07;;;;;;;7.80;4.83;;;0.00;99.90;;;;;;5081630;28;20440;-75
2021/04/07 05:42:35;;;;;;;8.27;4.90;;;0.10;99.90;;;;;;5080740;28;20474;-75
2021/04/07 05:45:04;;;;;;;6.17;4.10;;;0.20;99.90;;;;;;5080846;28;20939;-76
2021/04/07 05:47:33;;;;;;;8.27;5.57;;;0.30;99.90;;;;;;5080156;28;20597;-75
2021/04/07 05:50:01;;;;;;;6.33;4.63;;;0.40;99.90;;;;;;5099212;28;20432;-75
2021/04/07 05:52:28;;;;;;;11.93;5.57;;;0.40;99.90;;;;;;5080635;28;20842;-76
2021/04/07 05:54:59;;;;;;;7.47;5.13;;;0.30;99.90;;;;;;5083520;28;20958;-76
2021/04/07 05:57:27;;;;;;;6.30;4.00;;;0.30;99.90;;;;;;5068743;28;20436;-78
2021/04/07 05:59:55;;;;;;;6.77;4.90;;;0.40;99.90;;;;;;5068535;28;20464;-76
2021/04/07 06:02:23;;;;;;;6.10;4.67;;;0.40;99.90;;;;;;5083501;28;20480;-78
2021/04/07 06:04:52;;;;;;;5.20;4.63;;;0.50;99.90;;;;;;5081457;28;20487;-78
2021/04/07 06:07:21;;;;;;;6.53;3.50;;;0.50;99.90;;;;;;5062850;28;20444;-75
2021/04/07 06:09:49;;;;;;;7.00;4.80;;;0.40;99.90;;;;;;5064372;28;20945;-76
2021/04/07 06:12:17;;;;;;;8.30;4.87;;;0.40;99.90;;;;;;5063028;28;20510;-77
2021/04/07 06:14:45;;;;;;;8.10;4.90;;;0.40;99.90;;;;;;5080968;28;20433;-75
2021/04/07 06:17:14;;;;;;;8.90;3.80;;;0.40;99.90;;;;;;5063587;28;20477;-79
2021/04/07 06:22:36;;;;;;;6.40;3.67;;;0.70;99.90;;;;;;5080421;28;20434;-76
2021/04/07 06:25:06;;;;;;;7.17;4.83;;;0.80;99.90;;;;;;5063947;28;20844;-75
2021/04/07 06:27:34;;;;;;;7.70;4.20;;;1.10;99.90;;;;;;5062755;28;20777;-76
2021/04/07 06:30:09;;;;;;;5.60;4.33;;;1.30;99.90;;;;;;5061333;28;20434;-77
2021/04/07 06:32:38;;;;;;;6.87;3.80;;;1.50;99.90;;;;;;5017510;28;20470;-77
2021/04/07 06:35:07;;;;;;;10.00;5.00;;;1.70;99.90;;;;;;5023406;28;20423;-76
2021/04/07 06:37:37;;;;;;;5.77;4.10;;;1.70;99.90;;;;;;5039732;28;20475;-77
2021/04/07 06:40:06;;;;;;;9.10;4.67;;;1.60;99.90;;;;;;5040272;28;20529;-75
2021/04/07 06:42:34;;;;;;;7.70;5.53;;;1.70;99.90;;;;;;5040336;28;20443;-76
2021/04/07 06:45:05;;;;;;;5.90;3.90;;;1.70;99.90;;;;;;5041165;28;20436;-77
2021/04/07 06:47:35;;;;;;;7.87;4.33;;;1.60;99.90;;;;;;5041098;28;20570;-80
2021/04/07 06:50:08;;;;;;;6.20;4.03;;;1.60;99.90;;;;;;5025077;28;20511;-80
2021/04/07 06:52:39;;;;;;;5.33;4.47;;;1.50;99.90;;;;;;5023356;28;20514;-78
2021/04/07 06:55:09;;;;;;;7.77;3.80;;;1.60;99.90;;;;;;5039781;28;20432;-78
2021/04/07 06:57:41;;;;;;;7.40;4.90;;;1.60;99.90;;;;;;5023707;28;20440;-78
2021/04/07 07:00:13;;;;;;;9.30;4.70;;;1.70;99.90;;;;;;5041290;28;20455;-77
2021/04/07 07:02:46;;;;;;;6.73;5.00;;;1.60;99.90;;;;;;5043117;28;20494;-77
2021/04/07 07:05:18;;;;;;;4.77;4.20;;;1.70;99.90;;;;;;5066213;28;20433;-80
2021/04/07 07:08:02;;;;;;;6.37;3.53;;;2.90;99.90;;;;;;5081722;28;20528;-77
2021/04/07 07:10:38;;;;;;;6.00;4.43;;;6.10;98.70;;;;;;5083013;28;20904;-77
2021/04/07 07:13:09;;;;;;;5.00;3.90;;;6.50;95.50;;;;;;5066022;28;20447;-78
2021/04/07 07:15:38;;;;;;;5.07;3.50;;;6.00;95.30;;;;;;5098719;28;20521;-78
2021/04/07 07:18:08;;;;;;;6.50;3.20;;;5.00;97.20;;;;;;5081749;28;20421;-77
2021/04/07 07:20:39;;;;;;;6.30;3.40;;;4.70;98.20;;;;;;5064535;28;20451;-77
2021/04/07 07:23:10;;;;;;;5.83;3.47;;;4.50;98.00;;;;;;5081764;28;20441;-78
2021/04/07 07:25:40;;;;;;;5.87;3.97;;;3.90;98.90;;;;;;5081500;28;20843;-77
2021/04/07 07:28:10;;;;;;;5.67;4.50;;;3.80;98.80;;;;;;5082425;28;20448;-77
2021/04/07 07:30:42;;;;;;;4.83;3.60;;;4.00;97.80;;;;;;5081373;28;20469;-77
2021/04/07 07:33:17;;;;;;;5.70;2.60;;;3.70;99.00;;;;;;5064705;28;20935;-77
2021/04/07 07:35:48;;;;;;;4.30;3.20;;;3.80;98.70;;;;;;5064347;28;20440;-79
2021/04/07 07:38:30;;;;;;;4.80;4.40;;;3.40;98.80;;;;;;5079386;28;20437;-76
2021/04/07 07:41:00;;;;;;;4.97;3.43;;;3.40;99.60;;;;;;5094834;28;20421;-78
2021/04/07 07:43:28;;;;;;;6.90;4.50;;;3.50;99.00;;;;;;5062019;28;20490;-79
2021/04/07 07:46:07;;;;;;;6.07;4.33;;;3.50;99.70;;;;;;5099973;28;20474;-80
2021/04/07 07:48:35;;;;;;;6.90;3.20;;;5.50;96.40;;;;;;5064165;28;20527;-77
2021/04/07 07:51:13;;;;;;;3.23;2.93;;;8.00;92.00;;;;;;5080190;28;20444;-80
2021/04/07 07:57:54;;;;;;;4.27;3.13;;;9.90;76.90;;;;;;5097826;28;20867;-76
2021/04/07 08:00:26;;;;;;;5.97;3.73;;;9.60;71.30;;;;;;5064185;28;20447;-77
2021/04/07 08:02:55;;;;;;;4.90;3.40;;;10.80;68.70;;;;;;5099290;28;20450;-77
2021/04/07 08:05:25;;;;;;;4.23;2.90;;;9.70;66.90;;;;;;5097040;28;20490;-75
2021/04/07 08:07:54;;;;;;;4.80;3.27;;;9.30;72.30;;;;;;5064259;28;20859;-79
2021/04/07 08:10:22;;;;;;;5.90;3.43;;;8.80;72.30;;;;;;5064423;28;20451;-77
2021/04/07 08:12:53;;;;;;;5.23;3.03;;;7.80;74.40;;;;;;5079416;28;20825;-79
2021/04/07 08:15:23;;;;;;;6.07;2.87;;;8.10;76.30;;;;;;5061997;28;20468;-76
2021/04/07 08:17:53;;;;;;;7.83;2.80;;;7.90;77.90;;;;;;5080029;28;20525;-76
2021/04/07 08:20:23;;;;;;;2.83;2.53;;;7.70;75.30;;;;;;5064610;28;20470;-79
2021/04/07 08:22:53;;;;;;;4.53;2.70;;;8.30;76.00;;;;;;5080529;28;20461;-76
2021/04/07 08:25:24;;;;;;;2.97;2.20;;;8.10;73.90;;;;;;5062973;28;20443;-78
2021/04/07 08:27:56;;;;;;;3.33;2.63;;;7.10;74.60;;;;;;5061731;28;20479;-80
2021/04/07 08:30:26;;;;;;;4.10;2.33;;;5.80;79.00;;;;;;5044612;28;20436;-79
2021/04/07 08:33:02;;;;;;;2.53;2.33;;;4.80;83.80;;;;;;5079015;28;20449;-77
2021/04/07 08:35:32;;;;;;;3.93;2.80;;;4.50;88.70;;;;;;5079655;28;20451;-76
2021/04/07 08:38:03;;;;;;;5.10;2.73;;;4.20;90.30;;;;;;5079470;28;20517;-76
2021/04/07 08:40:42;;;;;;;4.33;2.77;;;3.80;92.00;;;;;;5063147;28;20453;-77
2021/04/07 08:43:16;;;;;;;3.30;2.67;;;4.20;91.60;;;;;;5079732;28;20451;-77
2021/04/07 08:45:48;;;;;;;4.20;2.50;;;4.60;91.30;;;;;;5076776;28;20476;-77
2021/04/07 09:01:13;;;;;;;4.63;2.47;;;7.10;84.40;;;;;;5096824;28;20489;-77
2021/04/07 09:04:36;;;;;;;3.80;2.33;;;6.90;80.50;;;;;;5098202;28;20476;-79
2021/04/07 09:07:08;;;;;;;2.93;2.67;;;7.30;82.80;;;;;;5064260;28;20429;-76
2021/04/07 09:09:38;;;;;;;3.27;2.37;;;8.10;78.60;;;;;;5080610;28;20477;-75
2021/04/07 09:12:11;;;;;;;3.43;2.57;;;7.70;74.40;;;;;;5081096;28;20432;-78
2021/04/07 09:14:40;;;;;;;4.00;2.03;;;6.40;79.00;;;;;;5062974;28;20500;-79
2021/04/07 09:17:13;;;;;;;5.93;2.17;;;6.00;81.60;;;;;;5079268;28;20474;-78
2021/04/07 09:19:41;;;;;;;3.97;1.93;;;5.60;82.40;;;;;;5064036;28;20460;-77
2021/04/07 09:22:46;;;;;;;10.03;2.70;;;5.40;84.10;;;;;;5101123;28;20456;-77
2021/04/07 09:25:21;;;;;;;3.43;2.27;;;5.10;84.30;;;;;;5087867;28;20428;-81
2021/04/07 09:27:51;;;;;;;4.47;2.43;;;4.60;87.40;;;;;;5082045;28;20490;-78
2021/04/07 09:30:23;;;;;;;5.67;2.63;;;3.90;90.30;;;;;;5082333;28;20441;-77
2021/04/07 09:32:57;;;;;;;4.40;2.70;;;3.20;91.50;;;;;;5084697;28;20452;-80
2021/04/07 09:35:30;;;;;;;3.00;2.70;;;2.80;94.30;;;;;;5069598;28;20540;-79
2021/04/07 09:37:59;;;;;;;3.70;2.30;;;2.70;95.70;;;;;;5068379;28;20420;-77
2021/04/07 09:40:29;;;;;;;5.13;2.83;;;3.20;95.90;;;;;;5067247;28;20517;-77
2021/04/07 09:42:57;;;;;;;2.33;1.70;;;4.30;94.40;;;;;;5083715;28;20448;-77
2021/04/07 09:45:30;;;;;;;3.37;1.73;;;5.20;92.30;;;;;;5061333;28;20439;-76
2021/04/07 09:48:00;;;;;;;2.87;1.57;;;5.90;90.20;;;;;;5085361;28;20543;-77
2021/04/07 09:50:30;;;;;;;2.80;1.97;;;6.40;84.10;;;;;;5068005;28;20626;-78
2021/04/07 09:52:58;;;;;;;2.67;1.97;;;5.60;84.40;;;;;;5067055;28;20439;-79
2021/04/07 09:58:20;;;;;;;2.73;1.63;;;5.50;85.10;;;;;;5066640;28;20779;-77
2021/04/07 10:00:54;;;;;;;2.00;1.50;;;5.90;87.10;;;;;;5080879;28;20890;-78
2021/04/07 10:03:27;;;;;;;3.67;2.33;;;6.90;81.10;;;;;;5083722;28;21038;-77
2021/04/07 10:05:58;;;;;;;6.20;5.60;;;7.40;81.00;;;;;;5065052;28;20440;-77
2021/04/07 10:08:26;;;;;;;7.83;4.10;;;8.80;76.20;;;;;;5081606;28;20429;-77
2021/04/07 10:11:10;;;;;;;6.85;4.30;;;10.70;71.00;;;;;;5099279;28;20436;-77
2021/04/07 10:13:39;;;;;;;2.00;1.80;;;11.00;63.60;;;;;;5082067;28;20252;-75
2021/04/07 10:16:14;;;;;;;2.73;1.60;;;9.40;64.50;;;;;;5083975;28;20474;-80
2021/04/07 10:18:45;;;;;;;2.90;2.10;;;7.80;68.20;;;;;;5066039;28;20508;-78
2021/04/07 10:21:17;;;;;;;2.20;1.57;;;6.60;71.60;;;;;;5065467;28;20607;-77
2021/04/07 10:24:51;;;;;;;1.50;1.40;;;5.70;74.90;;;;;;5082407;28;20444;-77
2021/04/07 10:27:21;;;;;;;5.27;1.80;;;5.60;77.80;;;;;;5082719;28;20433;-78
2021/04/07 10:29:50;;;;;;;3.27;1.30;;;5.60;79.60;;;;;;5066291;28;20546;-78
2021/04/07 10:32:22;;;;;;;1.47;1.27;;;4.90;80.40;;;;;;5100141;28;20977;-78
2021/04/07 10:35:00;;;;;;;3.03;1.80;;;4.60;84.70;;;;;;5067353;28;20436;-78
2021/04/07 10:37:32;;;;;;;7.40;1.60;;;4.40;87.10;;;;;;5066512;28;20454;-79
2021/04/07 10:40:00;;;;;;;1.93;1.83;;;4.40;89.40;;;;;;5062409;28;20486;-81
2021/04/07 10:42:30;;;;;;;2.70;2.47;;;5.00;90.20;;;;;;5097337;28;20432;-78
2021/04/07 10:45:00;;;;;;;4.40;2.13;;;6.20;87.70;;;;;;5080087;28;20437;-76
2021/04/07 10:47:35;;;;;;;1.73;1.60;;;5.50;87.00;;;;;;5064987;28;20538;-77
2021/04/07 10:50:04;;;;;;;4.43;2.30;;;5.10;90.10;;;;;;5066260;28;20979;-78
2021/04/07 10:52:39;;;;;;;2.70;1.70;;;4.60;91.40;;;;;;5065515;28;20469;-81
2021/04/07 10:55:11;;;;;;;4.37;2.20;;;4.20;91.80;;;;;;5081943;28;20801;-77
2021/04/07 10:57:41;;;;;;;3.13;2.10;;;4.10;93.20;;;;;;5065772;28;20476;-76
2021/04/07 11:00:25;;;;;;;3.77;2.37;;;3.90;93.50;;;;;;5099373;28;20473;-77
2021/04/07 11:02:55;;;;;;;2.87;2.30;;;3.90;94.70;;;;;;5082047;28;20524;-78
2021/04/07 11:05:40;;;;;;;5.37;2.00;;;3.80;95.30;;;;;;5078731;28;20535;-78
2021/04/07 11:08:12;;;;;;;3.07;2.87;;;3.40;96.00;;;;;;5017751;28;20810;-77
2021/04/07 11:10:43;;;;;;;5.93;2.43;;;3.20;97.60;;;;;;5078767;28;20524;-78
2021/04/07 11:13:12;;;;;;;6.07;2.30;;;3.30;98.80;;;;;;5059796;28;21016;-78
2021/04/07 11:15:40;;;;;;;5.70;2.47;;;3.30;99.50;;;;;;5059081;28;20544;-81
2021/04/07 11:18:08;;;;;;;5.43;2.50;;;3.40;99.80;;;;;;5077062;28;20862;-78
2021/04/07 11:20:40;;;;;;;2.20;1.57;;;3.60;98.40;;;;;;5078999;28;20465;-78
2021/04/07 11:23:10;;;;;;;3.70;2.20;;;3.40;97.50;;;;;;5061509;28;20548;-78
2021/04/07 11:25:43;;;;;;;3.67;2.47;;;3.50;97.60;;;;;;5063067;28;20449;-78
2021/04/07 11:28:19;;;;;;;2.40;1.90;;;3.60;97.80;;;;;;5079276;28;20469;-78
2021/04/07 11:30:59;;;;;;;2.20;2.00;;;3.60;97.70;;;;;;5060260;28;20473;-78
2021/04/07 11:33:36;;;;;;;2.80;2.00;;;3.70;98.70;;;;;;5061433;28;20454;-78
2021/04/07 11:36:13;;;;;;;4.43;2.50;;;3.40;99.60;;;;;;5061097;28;20456;-78
2021/04/07 11:38:48;;;;;;;2.90;2.70;;;3.20;99.90;;;;;;5060992;28;20433;-80
2021/04/07 11:41:55;;;;;;;2.70;2.50;;;3.00;99.90;;;;;;5060815;28;20445;-77
2021/04/07 11:44:26;;;;;;;2.53;1.77;;;2.70;99.90;;;;;;5078720;28;20433;-78
2021/04/07 11:46:56;;;;;;;2.85;2.45;;;2.80;99.90;;;;;;5077489;28;20452;-78
2021/04/07 11:49:23;;;;;;;3.00;2.57;;;3.00;99.90;;;;;;5078142;28;20550;-80
2021/04/07 11:51:51;;;;;;;3.20;2.87;;;2.90;99.90;;;;;;5060557;28;20831;-77
2021/04/07 11:54:20;;;;;;;3.27;2.90;;;2.90;99.90;;;;;;5061573;28;20430;-77
2021/04/07 11:56:49;;;;;;;3.77;2.63;;;2.80;99.90;;;;;;5062114;28;20441;-78
2021/04/07 11:59:21;;;;;;;6.40;3.80;;;2.70;99.90;;;;;;5062075;28;20469;-77
2021/04/07 12:01:55;;;;;;;4.97;4.40;;;2.00;99.90;;;;;;5057034;28;20595;-77
2021/04/07 12:04:26;;;;;;;5.03;4.10;;;2.00;99.90;;;;;;5075730;28;20503;-78
2021/04/07 12:06:56;;;;;;;3.70;3.30;;;1.90;99.90;;;;;;5065117;28;20433;-77
2021/04/07 12:09:25;;;;;;;4.83;3.63;;;2.20;99.90;;;;;;5068109;28;20461;-78
2021/04/07 12:11:52;;;;;;;6.00;3.23;;;2.60;99.90;;;;;;5081304;28;20493;-77
2021/04/07 12:14:20;;;;;;;5.60;2.73;;;3.10;99.90;;;;;;5077819;28;20808;-78
2021/04/07 12:16:48;;;;;;;5.40;3.13;;;3.10;99.90;;;;;;5059747;28;20481;-77
2021/04/07 12:19:18;;;;;;;4.80;3.87;;;3.10;99.90;;;;;;5060312;28;20466;-77
2021/04/07 12:21:47;;;;;;;3.70;3.07;;;2.90;99.90;;;;;;5060321;28;20437;-77
2021/04/07 12:24:16;;;;;;;6.70;3.57;;;2.90;99.90;;;;;;5059667;28;20434;-79
2021/04/07 12:26:49;;;;;;;4.20;2.80;;;2.90;99.90;;;;;;5059174;28;20442;-79
2021/04/07 12:29:18;;;;;;;4.03;3.63;;;2.90;99.90;;;;;;5059836;28;20437;-78
2021/04/07 12:31:46;;;;;;;3.33;3.03;;;2.90;99.90;;;;;;5074113;28;20497;-79
2021/04/07 12:34:14;;;;;;;4.00;3.20;;;3.00;99.90;;;;;;5060571;28;20460;-80
2021/04/07 12:36:43;;;;;;;6.13;4.03;;;3.00;99.90;;;;;;5060084;28;20453;-77
2021/04/07 12:39:11;;;;;;;2.73;2.43;;;3.10;99.90;;;;;;5059171;28;20473;-79
2021/04/07 12:41:49;;;;;;;3.90;3.20;;;3.10;99.90;;;;;;5058066;28;20478;-78
2021/04/07 12:44:18;;;;;;;2.90;2.60;;;3.20;99.90;;;;;;5075828;28;20925;-78
2021/04/07 12:46:46;;;;;;;4.80;3.67;;;3.60;99.90;;;;;;5058352;28;20933;-78
2021/04/07 12:49:14;;;;;;;3.17;2.87;;;3.70;99.90;;;;;;5061164;28;20469;-78
2021/04/07 12:51:45;;;;;;;4.82;3.60;;;3.70;99.90;;;;;;5068100;28;20554;-78
2021/04/07 12:54:13;;;;;;;4.50;3.10;;;3.50;99.90;;;;;;5075318;28;20184;-81
2021/04/07 12:56:44;;;;;;;4.27;3.20;;;3.30;99.90;;;;;;5063951;28;20445;-78
2021/04/07 12:59:12;;;;;;;3.93;3.60;;;3.20;99.90;;;;;;5078241;28;20473;-78
2021/04/07 13:01:41;;;;;;;6.10;3.60;;;3.30;99.90;;;;;;5059369;28;20540;-78
2021/04/07 13:04:10;;;;;;;5.83;3.13;;;3.60;99.90;;;;;;5063646;28;20465;-77
2021/04/07 13:06:39;;;;;;;3.50;2.87;;;3.70;99.90;;;;;;5065222;28;20449;-77
2021/04/07 13:09:07;;;;;;;5.30;2.33;;;3.70;99.90;;;;;;5082607;28;20441;-78
2021/04/07 13:11:35;;;;;;;3.43;3.00;;;3.60;99.90;;;;;;5082359;28;20409;-77
2021/04/07 13:14:03;;;;;;;4.70;3.67;;;3.60;99.90;;;;;;5064531;28;20433;-77
2021/04/07 13:16:31;;;;;;;5.70;2.80;;;3.50;99.90;;;;;;5063541;28;20871;-76
2021/04/07 13:19:01;;;;;;;7.80;3.57;;;3.50;99.90;;;;;;5081868;28;20425;-77
2021/04/07 13:21:34;;;;;;;3.50;3.20;;;3.70;99.90;;;;;;5063490;28;20446;-77
2021/04/07 13:24:02;;;;;;;3.50;3.00;;;3.70;99.90;;;;;;5078922;28;20468;-76
2021/04/07 13:26:30;;;;;;;5.03;3.43;;;3.70;99.90;;;;;;5080224;28;20464;-77
2021/04/07 13:28:58;;;;;;;4.00;2.47;;;3.80;99.90;;;;;;5078337;28;20461;-76
2021/04/07 13:31:26;;;;;;;3.60;2.53;;;3.80;99.90;;;;;;5078872;28;20827;-74
2021/04/07 13:33:56;;;;;;;5.80;3.17;;;3.90;99.90;;;;;;5080682;28;20418;-79
2021/04/07 13:36:28;;;;;;;3.27;2.97;;;3.80;99.90;;;;;;5078296;28;20946;-76
2021/04/07 13:38:58;;;;;;;2.67;2.47;;;3.70;99.90;;;;;;5079432;28;20440;-76
2021/04/07 13:41:40;;;;;;;3.57;2.90;;;3.80;99.90;;;;;;5079203;28;20468;-76
2021/04/07 13:44:08;;;;;;;3.70;2.87;;;3.60;99.90;;;;;;5077876;28;20524;-76